Time;durP1;ratioP1;P1;durP2;ratioP2;P2;SDS_P1;SDS_P2;PMS_P1;PMS_P2;Temp;Humidity;BMP_temperature;BMP_pressure;BME280_temperature;BME280_humidity;BME280_pressure;Samples;Min_cycle;Max_cycle;Signal;HPM_P1;HPM_P2
2022/07/09 00:00:44;;;;;;;7.00;2.60;;;;;;;14.83;65.35;99231.72;5090274;28;20383;-80
2022/07/09 00:03:09;;;;;;;4.05;2.42;;;;;;;14.80;65.27;99224.06;5090403;28;20429;-78
2022/07/09 00:05:35;;;;;;;5.50;3.13;;;;;;;14.79;65.34;99227.94;5090715;28;20073;-79
2022/07/09 00:08:00;;;;;;;6.45;2.92;;;;;;;14.76;65.90;99232.16;5090426;28;20073;-79
2022/07/09 00:10:26;;;;;;;6.20;3.10;;;;;;;14.75;65.22;99233.28;5091184;28;20388;-79
2022/07/09 00:12:51;;;;;;;6.95;2.58;;;;;;;14.74;65.33;99235.19;5090189;28;20111;-78
2022/07/09 00:15:17;;;;;;;5.88;2.63;;;;;;;14.74;65.69;99226.13;5089879;28;20047;-80
2022/07/09 00:17:42;;;;;;;6.93;2.88;;;;;;;14.72;65.65;99228.34;5086228;28;20024;-79
2022/07/09 00:20:08;;;;;;;5.18;2.45;;;;;;;14.70;65.91;99227.84;5089044;28;20082;-79
2022/07/09 00:22:34;;;;;;;5.57;2.90;;;;;;;14.65;65.45;99225.97;5089804;28;20103;-79
2022/07/09 00:25:00;;;;;;;4.90;2.40;;;;;;;14.64;65.24;99229.03;5087794;28;20450;-78
2022/07/09 00:27:25;;;;;;;5.30;2.70;;;;;;;14.61;64.83;99227.69;5089665;28;20020;-78
2022/07/09 00:29:51;;;;;;;7.68;2.60;;;;;;;14.62;65.20;99228.50;5090132;28;20062;-79
2022/07/09 00:32:18;;;;;;;9.80;3.05;;;;;;;14.59;65.26;99229.94;5089594;28;20111;-77
2022/07/09 00:34:43;;;;;;;5.45;2.65;;;;;;;14.56;65.09;99227.78;5090037;28;20023;-76
2022/07/09 00:37:09;;;;;;;6.07;2.75;;;;;;;14.55;65.41;99229.72;5089706;28;20016;-77
2022/07/09 00:39:34;;;;;;;6.40;2.63;;;;;;;14.53;65.34;99236.69;5090461;28;20024;-78
2022/07/09 00:42:08;;;;;;;7.63;2.70;;;;;;;14.48;65.32;99226.53;5089065;28;20161;-77
2022/07/09 00:44:35;;;;;;;5.68;2.50;;;;;;;14.45;65.80;99224.41;5090088;28;20508;-77
2022/07/09 00:47:01;;;;;;;5.75;2.97;;;;;;;14.45;65.28;99224.41;5090037;28;20053;-77
2022/07/09 00:49:29;;;;;;;3.55;2.20;;;;;;;14.43;65.63;99226.66;5089622;28;20168;-76
2022/07/09 00:51:56;;;;;;;8.07;3.05;;;;;;;14.40;65.29;99227.25;5089241;28;20024;-77
2022/07/09 00:54:25;;;;;;;6.90;2.60;;;;;;;14.37;65.80;99228.66;5089395;28;20028;-76
2022/07/09 00:56:55;;;;;;;6.07;2.53;;;;;;;14.32;65.38;99228.75;5090033;28;20043;-76
2022/07/09 00:59:24;;;;;;;5.55;2.58;;;;;;;14.26;65.06;99227.22;5089234;28;20445;-77
2022/07/09 01:01:50;;;;;;;6.82;2.60;;;;;;;14.21;65.18;99230.06;5089131;28;20621;-76
2022/07/09 01:04:16;;;;;;;5.70;2.65;;;;;;;14.19;65.47;99232.31;5087717;28;20024;-77
2022/07/09 01:06:42;;;;;;;6.05;2.67;;;;;;;14.15;65.97;99226.53;5089065;28;20020;-76
2022/07/09 01:09:07;;;;;;;5.68;3.05;;;;;;;14.10;65.64;99221.13;5089347;28;20024;-76
2022/07/09 01:11:33;;;;;;;6.22;3.00;;;;;;;14.05;66.01;99230.31;5088799;28;20038;-76
2022/07/09 01:13:59;;;;;;;7.15;2.70;;;;;;;14.02;66.12;99219.88;5089135;28;20357;-77
2022/07/09 01:16:35;;;;;;;6.47;2.80;;;;;;;13.96;65.59;99221.06;5089510;28;20476;-77
2022/07/09 01:19:02;;;;;;;4.78;3.00;;;;;;;13.93;66.05;99225.25;5087527;28;20066;-78
2022/07/09 01:21:27;;;;;;;8.25;3.55;;;;;;;13.90;66.03;99225.00;5088548;28;20539;-78
2022/07/09 01:23:53;;;;;;;5.63;2.78;;;;;;;13.84;66.09;99219.59;5088839;28;20103;-77
2022/07/09 01:26:21;;;;;;;7.90;2.60;;;;;;;13.81;66.02;99222.97;5089807;28;20027;-77
2022/07/09 01:28:47;;;;;;;8.00;2.80;;;;;;;13.78;66.18;99217.22;5087868;28;20020;-77
2022/07/09 01:31:13;;;;;;;5.70;2.40;;;;;;;13.73;66.14;99215.34;5088960;28;20032;-77
2022/07/09 01:33:39;;;;;;;6.03;2.88;;;;;;;13.69;66.08;99217.06;5089413;28;20369;-77
2022/07/09 01:36:05;;;;;;;6.72;2.58;;;;;;;13.66;66.03;99212.97;5069580;28;20084;-78
2022/07/09 01:38:31;;;;;;;4.78;2.50;;;;;;;13.63;66.69;99208.06;5088994;28;20059;-77
2022/07/09 01:40:57;;;;;;;6.10;2.85;;;;;;;13.57;66.17;99214.75;5089415;28;20482;-77
2022/07/09 01:43:22;;;;;;;6.63;2.80;;;;;;;13.51;66.38;99208.50;5084862;28;20035;-77
2022/07/09 01:45:48;;;;;;;4.10;2.63;;;;;;;13.49;66.51;99215.44;5086192;28;20055;-78
2022/07/09 01:48:13;;;;;;;4.75;2.50;;;;;;;13.47;67.16;99203.88;5088632;28;20028;-78
2022/07/09 01:50:39;;;;;;;5.57;2.80;;;;;;;13.42;67.65;99206.69;5070166;28;20024;-77
2022/07/09 01:53:04;;;;;;;8.38;3.15;;;;;;;13.38;67.05;99210.03;5085910;28;20952;-77
2022/07/09 01:55:30;;;;;;;5.72;2.70;;;;;;;13.35;67.98;99210.59;5069270;28;20044;-77
2022/07/09 01:57:55;;;;;;;7.75;2.97;;;;;;;13.31;67.04;99203.25;5089474;28;20082;-77
2022/07/09 02:00:21;;;;;;;6.03;2.92;;;;;;;13.25;67.53;99208.81;5088283;28;20103;-77
2022/07/09 02:02:47;;;;;;;5.43;2.75;;;;;;;13.21;67.59;99206.97;5088123;28;20116;-77
2022/07/09 02:05:12;;;;;;;5.68;2.78;;;;;;;13.18;67.36;99211.09;5088177;28;20519;-78
2022/07/09 02:07:38;;;;;;;8.90;3.20;;;;;;;13.18;67.18;99204.78;5089245;28;20040;-77
2022/07/09 02:10:04;;;;;;;5.80;2.85;;;;;;;13.17;67.41;99212.22;5089255;28;20016;-77
2022/07/09 02:12:30;;;;;;;5.93;2.67;;;;;;;13.19;67.45;99207.25;5087732;28;20032;-79
2022/07/09 02:14:55;;;;;;;6.00;2.83;;;;;;;13.20;67.57;99200.63;5068896;28;20038;-81
2022/07/09 02:17:21;;;;;;;5.90;2.90;;;;;;;13.21;67.34;99204.22;5088322;28;20032;-75
2022/07/09 02:19:46;;;;;;;6.03;2.70;;;;;;;13.22;67.31;99201.16;5088558;28;20032;-76
2022/07/09 02:22:12;;;;;;;7.90;2.60;;;;;;;13.24;67.54;99204.44;5087995;28;20385;-78
2022/07/09 02:24:37;;;;;;;6.32;3.10;;;;;;;13.29;67.33;99197.22;5087293;28;20040;-75
2022/07/09 02:27:03;;;;;;;5.45;2.65;;;;;;;13.33;67.42;99199.06;5084717;28;20036;-76
2022/07/09 02:29:28;;;;;;;6.47;2.75;;;;;;;13.36;67.33;99190.22;5085011;28;20566;-76
2022/07/09 02:31:57;;;;;;;5.60;2.90;;;;;;;13.42;67.69;99191.00;5087969;28;20047;-76
2022/07/09 02:34:23;;;;;;;7.43;2.75;;;;;;;13.44;67.54;99193.44;5086510;28;20028;-76
2022/07/09 02:36:48;;;;;;;7.50;2.67;;;;;;;13.45;67.86;99195.09;5087568;28;20024;-74
2022/07/09 02:39:14;;;;;;;7.05;2.80;;;;;;;13.46;67.92;99197.53;5088565;28;20032;-75
2022/07/09 02:41:40;;;;;;;6.03;2.60;;;;;;;13.47;67.86;99201.94;5088444;28;20438;-76
2022/07/09 02:44:05;;;;;;;6.72;2.90;;;;;;;13.50;67.60;99198.59;5088949;28;20024;-76
2022/07/09 02:46:31;;;;;;;6.50;2.92;;;;;;;13.54;68.67;99201.59;5088853;28;20032;-76
2022/07/09 02:48:56;;;;;;;6.90;2.70;;;;;;;13.54;68.16;99196.06;5089240;28;20042;-76
2022/07/09 02:51:21;;;;;;;6.15;2.78;;;;;;;13.58;67.89;99188.00;5091845;28;20959;-75
2022/07/09 02:53:47;;;;;;;6.55;2.58;;;;;;;13.59;67.89;99201.50;5091341;28;20073;-76
2022/07/09 02:56:12;;;;;;;4.82;2.40;;;;;;;13.62;68.04;99203.66;5092088;28;20032;-77
2022/07/09 02:58:38;;;;;;;7.03;2.92;;;;;;;13.64;67.56;99192.34;5092245;28;20016;-77
2022/07/09 03:01:05;;;;;;;7.63;2.55;;;;;;;13.66;67.92;99196.41;5091847;28;20031;-78
2022/07/09 03:03:31;;;;;;;7.95;2.95;;;;;;;13.68;67.98;99185.91;5091149;28;20016;-78
2022/07/09 03:05:56;;;;;;;4.00;2.67;;;;;;;13.73;67.88;99187.78;5091993;28;20020;-77
2022/07/09 03:08:22;;;;;;;3.13;2.45;;;;;;;13.78;68.34;99192.41;5073786;28;20395;-77
2022/07/09 03:10:51;;;;;;;5.45;2.80;;;;;;;13.80;67.74;99191.00;5073855;28;20020;-77
2022/07/09 03:13:17;;;;;;;9.30;2.45;;;;;;;13.86;67.68;99191.72;5091645;28;20027;-76
2022/07/09 03:15:43;;;;;;;6.18;2.58;;;;;;;13.91;67.88;99190.81;5091790;28;20107;-77
2022/07/09 03:18:09;;;;;;;6.22;2.70;;;;;;;13.96;67.68;99188.81;5091603;28;20032;-76
2022/07/09 03:20:35;;;;;;;7.05;3.20;;;;;;;13.99;67.81;99188.22;5091857;28;20020;-77
2022/07/09 03:23:01;;;;;;;7.53;3.17;;;;;;;14.04;67.73;99186.47;5091634;28;20062;-77
2022/07/09 03:25:27;;;;;;;6.75;2.72;;;;;;;14.07;67.65;99192.22;5091122;28;20535;-78
2022/07/09 03:27:53;;;;;;;5.97;2.83;;;;;;;14.08;67.62;99188.31;5091570;28;20115;-79
2022/07/09 03:30:19;;;;;;;6.30;3.10;;;;;;;14.11;67.40;99189.66;5091635;28;20081;-77
2022/07/09 03:32:45;;;;;;;6.53;3.17;;;;;;;14.13;67.42;99191.00;5090954;28;20032;-77
2022/07/09 03:35:10;;;;;;;6.03;2.88;;;;;;;14.17;67.49;99184.88;5091344;28;20043;-78
2022/07/09 03:37:36;;;;;;;5.43;2.72;;;;;;;14.19;67.27;99188.16;5091325;28;20023;-77
2022/07/09 03:40:02;;;;;;;9.05;2.83;;;;;;;14.21;67.34;99188.69;5091123;28;20032;-78
2022/07/09 03:42:28;;;;;;;5.25;2.80;;;;;;;14.24;67.25;99186.13;5091114;28;20016;-78
2022/07/09 03:44:53;;;;;;;6.28;3.10;;;;;;;14.24;67.39;99179.81;5091079;28;20111;-78
2022/07/09 03:47:19;;;;;;;6.68;2.92;;;;;;;14.28;67.91;99178.03;5091448;28;20099;-78
2022/07/09 03:49:44;;;;;;;6.93;3.10;;;;;;;14.30;67.87;99178.56;5091467;28;20480;-79
2022/07/09 03:52:10;;;;;;;5.78;3.10;;;;;;;14.31;67.38;99188.47;5091096;28;20032;-79
2022/07/09 03:54:35;;;;;;;7.35;3.58;;;;;;;14.35;67.73;99172.97;5088784;28;20494;-78
2022/07/09 03:57:01;;;;;;;6.68;3.40;;;;;;;14.39;67.50;99175.94;5087133;28;20444;-78
2022/07/09 03:59:26;;;;;;;8.05;3.95;;;;;;;14.42;67.81;99175.34;5091242;28;20051;-76
2022/07/09 04:01:51;;;;;;;7.50;3.30;;;;;;;14.46;67.81;99170.00;5087307;28;20040;-77
2022/07/09 04:04:17;;;;;;;7.65;3.47;;;;;;;14.50;67.72;99166.31;5091755;28;20044;-77
2022/07/09 04:06:42;;;;;;;7.63;3.50;;;;;;;14.55;68.30;99165.44;5091924;28;20035;-77
2022/07/09 04:09:08;;;;;;;10.18;3.70;;;;;;;14.57;67.90;99172.28;5092213;28;20039;-77
2022/07/09 04:11:34;;;;;;;8.52;3.30;;;;;;;14.57;67.83;99175.03;5091606;28;20038;-77
2022/07/09 04:14:00;;;;;;;9.55;3.33;;;;;;;14.57;68.34;99163.19;5092026;28;20032;-77
2022/07/09 04:16:26;;;;;;;6.35;3.20;;;;;;;14.57;68.05;99158.47;5090339;28;20031;-77
2022/07/09 04:18:51;;;;;;;9.75;3.60;;;;;;;14.59;68.29;99163.69;5091002;28;20043;-75
2022/07/09 04:21:16;;;;;;;8.50;3.55;;;;;;;14.61;68.60;99153.16;5090785;28;20103;-75
2022/07/09 04:23:42;;;;;;;10.30;3.28;;;;;;;14.69;68.45;99158.00;5090719;28;20028;-75
2022/07/09 04:26:08;;;;;;;5.88;2.90;;;;;;;14.78;68.28;99160.88;5090163;28;20032;-74
2022/07/09 04:28:36;;;;;;;7.75;3.17;;;;;;;14.85;68.41;99165.97;5090637;28;20019;-75
2022/07/09 04:31:01;;;;;;;8.68;3.17;;;;;;;14.89;68.28;99162.28;5071649;28;20043;-74
2022/07/09 04:33:27;;;;;;;8.07;3.30;;;;;;;14.92;68.31;99163.63;5087197;28;20032;-75
2022/07/09 04:35:52;;;;;;;6.82;2.90;;;;;;;14.96;68.27;99167.41;5089333;28;20028;-74
2022/07/09 04:38:18;;;;;;;7.18;3.20;;;;;;;15.04;68.14;99163.09;5090492;28;20028;-74
2022/07/09 04:40:43;;;;;;;6.63;2.97;;;;;;;15.13;68.20;99163.19;5090607;28;20028;-75
2022/07/09 04:43:09;;;;;;;5.28;2.78;;;;;;;15.23;68.18;99159.41;5086253;28;20032;-74
2022/07/09 04:45:34;;;;;;;5.68;2.80;;;;;;;15.30;68.36;99160.59;5090039;28;20569;-74
2022/07/09 04:48:00;;;;;;;6.07;2.55;;;;;;;15.37;68.45;99159.34;5090115;28;20024;-75
2022/07/09 04:50:26;;;;;;;8.93;3.17;;;;;;;15.40;68.11;99150.44;5090332;28;20020;-76
2022/07/09 04:52:52;;;;;;;7.25;2.67;;;;;;;15.48;68.15;99156.03;5090478;28;20027;-75
2022/07/09 04:55:17;;;;;;;6.75;3.03;;;;;;;15.53;67.95;99148.75;5090000;28;20031;-74
2022/07/09 04:57:44;;;;;;;5.82;2.67;;;;;;;15.58;67.83;99143.13;5090884;28;20035;-74
2022/07/09 05:00:10;;;;;;;4.50;2.63;;;;;;;15.60;68.04;99141.66;5091132;28;20020;-76
2022/07/09 05:02:37;;;;;;;5.20;2.55;;;;;;;15.70;67.68;99153.63;5090800;28;20024;-75
2022/07/09 05:05:03;;;;;;;4.85;2.47;;;;;;;15.76;67.66;99161.47;5090897;28;20142;-74
2022/07/09 05:07:30;;;;;;;6.60;2.25;;;;;;;15.85;67.76;99163.47;5090879;28;20027;-74
2022/07/09 05:09:55;;;;;;;5.78;2.28;;;;;;;15.93;67.65;99160.78;5090759;28;20073;-75
2022/07/09 05:12:20;;;;;;;4.60;2.50;;;;;;;15.99;67.72;99160.69;5089763;28;20032;-76
2022/07/09 05:14:46;;;;;;;4.93;2.42;;;;;;;15.95;67.57;99159.66;5090617;28;20027;-75
2022/07/09 05:17:12;;;;;;;5.90;2.83;;;;;;;15.90;67.48;99163.38;5090648;28;20047;-75
2022/07/09 05:19:37;;;;;;;6.63;2.60;;;;;;;15.87;67.92;99155.72;5088616;28;20079;-76
2022/07/09 05:22:03;;;;;;;4.72;2.50;;;;;;;15.85;67.56;99152.41;5090412;28;20024;-75
2022/07/09 05:24:28;;;;;;;5.30;2.47;;;;;;;15.89;67.35;99159.00;5090327;28;20043;-76
2022/07/09 05:26:54;;;;;;;3.35;2.33;;;;;;;15.99;67.45;99149.59;5089755;28;20071;-75
2022/07/09 05:29:22;;;;;;;6.40;2.47;;;;;;;16.10;67.81;99150.19;5090583;28;20500;-77
2022/07/09 05:31:48;;;;;;;6.68;2.58;;;;;;;16.13;67.42;99155.91;5090296;28;20031;-76
2022/07/09 05:34:14;;;;;;;4.30;2.40;;;;;;;16.12;67.60;99150.66;5090833;28;20027;-76
2022/07/09 05:36:40;;;;;;;5.00;1.92;;;;;;;16.12;67.75;99150.66;5090203;28;20055;-75
2022/07/09 05:39:07;;;;;;;4.97;2.30;;;;;;;16.11;67.68;99143.50;5090583;28;20255;-75
2022/07/09 05:41:33;;;;;;;4.85;2.38;;;;;;;16.13;67.48;99136.53;5090269;28;21246;-77
2022/07/09 05:43:58;;;;;;;4.50;2.05;;;;;;;16.18;67.57;99133.63;5090210;28;20028;-75
2022/07/09 05:46:24;;;;;;;6.10;2.10;;;;;;;16.23;67.23;99138.19;5090416;28;20035;-76
2022/07/09 05:48:50;;;;;;;2.95;1.95;;;;;;;16.19;67.14;99134.44;5090689;28;20078;-75
2022/07/09 05:51:15;;;;;;;7.03;2.47;;;;;;;16.21;67.34;99133.00;5090147;28;20043;-76
2022/07/09 05:53:40;;;;;;;4.57;2.50;;;;;;;16.24;67.52;99130.72;5090497;28;20020;-75
2022/07/09 05:56:07;;;;;;;5.72;2.22;;;;;;;16.24;67.16;99130.72;5089814;28;20028;-74
2022/07/09 05:58:32;;;;;;;3.25;2.22;;;;;;;16.26;67.18;99131.22;5089802;28;20063;-76
2022/07/09 06:00:58;;;;;;;3.30;2.20;;;;;;;16.31;67.09;99126.34;5089755;28;20048;-75
2022/07/09 06:03:23;;;;;;;5.68;2.45;;;;;;;16.47;67.44;99132.28;5090132;28;20077;-76
2022/07/09 06:05:49;;;;;;;5.97;2.53;;;;;;;16.55;67.15;99129.88;5090091;28;20141;-77
2022/07/09 06:08:15;;;;;;;3.97;1.75;;;;;;;16.61;66.86;99123.88;5089967;28;20472;-76
2022/07/09 06:10:41;;;;;;;5.15;1.92;;;;;;;16.69;66.67;99130.59;5088814;28;20020;-75
2022/07/09 06:13:07;;;;;;;7.40;2.28;;;;;;;16.77;66.56;99124.25;5089747;28;20081;-76
2022/07/09 06:15:32;;;;;;;2.90;1.88;;;;;;;16.85;66.76;99125.44;5089789;28;20031;-76
2022/07/09 06:17:57;;;;;;;4.47;2.15;;;;;;;16.95;66.50;99124.31;5089500;28;20040;-76
2022/07/09 06:20:23;;;;;;;7.70;2.25;;;;;;;17.06;66.53;99127.59;5055127;28;20035;-76
2022/07/09 06:22:48;;;;;;;6.22;2.30;;;;;;;17.15;66.22;99120.13;5088642;28;20021;-75
2022/07/09 06:25:14;;;;;;;6.45;2.25;;;;;;;17.18;65.74;99119.47;5092730;28;20518;-74
2022/07/09 06:27:42;;;;;;;5.38;2.08;;;;;;;17.25;66.13;99111.50;5093328;28;20032;-72
2022/07/09 06:30:08;;;;;;;6.13;2.33;;;;;;;17.32;65.80;99107.44;5093775;28;20574;-72
2022/07/09 06:32:35;;;;;;;13.63;6.65;;;;;;;17.37;65.56;99118.34;5093420;28;20106;-73
2022/07/09 06:35:00;;;;;;;7.82;2.53;;;;;;;17.45;65.33;99108.41;5094129;28;20112;-75
2022/07/09 06:37:26;;;;;;;8.13;2.45;;;;;;;17.52;65.40;99105.97;5093471;28;20091;-74
2022/07/09 06:39:55;;;;;;;5.35;2.17;;;;;;;17.67;65.16;99108.22;5093368;28;20024;-74
2022/07/09 06:42:21;;;;;;;3.25;1.65;;;;;;;17.84;64.59;99107.38;5093674;28;20078;-74
2022/07/09 06:44:47;;;;;;;5.90;1.88;;;;;;;17.99;64.40;99103.28;5093184;28;20547;-74
2022/07/09 06:47:12;;;;;;;3.80;2.03;;;;;;;17.98;64.42;99109.97;5093308;28;20095;-75
2022/07/09 06:49:38;;;;;;;4.38;1.80;;;;;;;18.02;64.27;99103.78;5093608;28;20376;-74
2022/07/09 06:52:04;;;;;;;3.40;1.90;;;;;;;18.08;64.24;99103.28;5093406;28;20023;-74
2022/07/09 06:54:30;;;;;;;6.00;1.90;;;;;;;18.14;63.59;99098.38;5092561;28;20036;-74
2022/07/09 06:56:58;;;;;;;17.20;9.85;;;;;;;18.12;63.54;99101.50;5092946;28;20017;-74
2022/07/09 06:59:25;;;;;;;18.83;10.50;;;;;;;18.00;63.40;99107.69;5093082;28;20453;-75
2022/07/09 07:01:51;;;;;;;17.50;9.77;;;;;;;17.91;63.45;99106.06;5092687;28;20020;-74
2022/07/09 07:04:17;;;;;;;7.60;2.50;;;;;;;17.88;63.83;99101.19;5092907;28;20053;-74
2022/07/09 07:06:45;;;;;;;5.05;2.60;;;;;;;17.95;63.61;99095.94;5092864;28;20063;-74
2022/07/09 07:09:11;;;;;;;4.55;1.92;;;;;;;17.99;63.59;99092.19;5074579;28;20055;-74
2022/07/09 07:11:36;;;;;;;5.20;1.92;;;;;;;17.99;63.33;99096.94;5074953;28;20055;-74
2022/07/09 07:14:02;;;;;;;4.20;2.10;;;;;;;18.02;63.14;99104.63;5074807;28;20093;-73
2022/07/09 07:16:27;;;;;;;3.70;1.80;;;;;;;18.12;63.19;99098.72;5092794;28;20020;-74
2022/07/09 07:18:53;;;;;;;6.00;2.10;;;;;;;18.27;62.85;99102.06;5092773;28;20476;-74
2022/07/09 07:21:19;;;;;;;3.55;1.60;;;;;;;18.41;62.60;99105.47;5093131;28;20107;-74
2022/07/09 07:23:44;;;;;;;3.55;1.80;;;;;;;18.48;62.23;99101.34;5092784;28;20107;-74
2022/07/09 07:26:10;;;;;;;5.30;1.88;;;;;;;18.52;62.17;99097.56;5092858;28;20154;-75
2022/07/09 07:28:35;;;;;;;3.67;1.50;;;;;;;18.54;61.85;99098.06;5092122;28;20020;-74
2022/07/09 07:31:01;;;;;;;6.90;2.03;;;;;;;18.47;61.78;99089.41;5088653;28;20040;-73
2022/07/09 07:33:26;;;;;;;3.58;2.10;;;;;;;18.45;61.80;99106.44;5072165;28;20016;-75
2022/07/09 07:35:52;;;;;;;3.80;2.00;;;;;;;18.45;61.86;99092.53;5091687;28;20047;-73
2022/07/09 07:38:17;;;;;;;4.78;1.92;;;;;;;18.50;61.57;99101.84;5092257;28;20035;-74
2022/07/09 07:40:43;;;;;;;5.25;2.15;;;;;;;18.56;61.49;99100.47;5091979;28;20016;-74
2022/07/09 07:43:11;;;;;;;5.38;1.60;;;;;;;18.71;61.09;99093.56;5091601;28;20104;-74
2022/07/09 07:45:37;;;;;;;4.47;2.03;;;;;;;18.89;61.29;99094.28;5090256;28;20032;-74
2022/07/09 07:48:03;;;;;;;3.55;1.80;;;;;;;18.90;60.81;99085.59;5091908;28;20046;-74
2022/07/09 07:50:29;;;;;;;4.78;1.92;;;;;;;18.94;60.79;99087.69;5074280;28;20146;-74
2022/07/09 07:52:54;;;;;;;4.32;1.92;;;;;;;18.94;60.47;99091.31;5091975;28;20017;-74
2022/07/09 07:55:19;;;;;;;3.97;1.63;;;;;;;18.98;60.37;99083.91;5092441;28;20017;-75
2022/07/09 07:57:45;;;;;;;3.63;1.65;;;;;;;18.97;60.50;99087.06;5090227;28;20024;-75
2022/07/09 08:00:11;;;;;;;3.40;1.50;;;;;;;18.95;60.53;99083.75;5091801;28;20748;-74
2022/07/09 08:02:37;;;;;;;3.08;1.80;;;;;;;18.99;60.54;99082.78;5091770;28;20555;-73
2022/07/09 08:05:02;;;;;;;5.63;2.00;;;;;;;19.10;60.44;99074.03;5091707;28;20047;-74
2022/07/09 08:07:28;;;;;;;2.75;1.73;;;;;;;19.13;59.89;99067.81;5074033;28;20032;-74
2022/07/09 08:09:53;;;;;;;3.17;1.70;;;;;;;19.18;59.51;99065.63;5091963;28;20028;-75
2022/07/09 08:12:19;;;;;;;3.50;1.52;;;;;;;19.24;59.39;99063.47;5091722;28;20023;-77
2022/07/09 08:14:44;;;;;;;6.57;1.90;;;;;;;19.39;59.69;99069.56;5092272;28;20020;-76
2022/07/09 08:17:10;;;;;;;3.88;1.80;;;;;;;19.58;59.44;99061.53;5091815;28;20035;-77
2022/07/09 08:19:35;;;;;;;4.10;1.83;;;;;;;;;;5091615;28;20043;-78
2022/07/09 08:22:01;;;;;;;3.60;1.60;;;;;;;19.96;58.46;99050.53;5091479;28;20503;-78
2022/07/09 08:24:27;;;;;;;2.92;1.63;;;;;;;20.11;57.22;99049.88;5073020;28;20030;-77
2022/07/09 08:26:52;;;;;;;3.92;1.77;;;;;;;20.20;57.47;99050.56;5090003;28;20045;-78
2022/07/09 08:29:18;;;;;;;3.50;1.38;;;;;;;20.28;57.10;99048.03;5090433;28;20051;-75
2022/07/09 08:31:43;;;;;;;3.75;1.80;;;;;;;20.36;56.99;99041.53;5090349;28;20016;-76
2022/07/09 08:34:08;;;;;;;3.72;1.73;;;;;;;20.45;56.66;99045.03;5089670;28;20346;-76
2022/07/09 08:36:34;;;;;;;3.65;1.40;;;;;;;20.50;57.03;99041.19;5090416;28;20027;-76
2022/07/09 08:38:59;;;;;;;4.60;1.30;;;;;;;20.62;56.59;99043.13;5088283;28;20020;-76
2022/07/09 08:41:25;;;;;;;3.97;1.25;;;;;;;20.68;55.48;99038.94;5072043;28;20404;-77
2022/07/09 08:43:52;;;;;;;2.05;1.20;;;;;;;20.73;54.14;99027.56;5090400;28;20408;-76
2022/07/09 08:46:18;;;;;;;2.63;1.30;;;;;;;20.72;54.96;99037.09;5089769;28;20024;-76
2022/07/09 08:48:45;;;;;;;2.60;0.98;;;;;;;20.66;54.08;99032.91;5089505;28;20052;-76
2022/07/09 08:51:10;;;;;;;4.35;1.40;;;;;;;20.67;54.26;99038.16;5089174;28;20480;-75
2022/07/09 08:53:44;;;;;;;5.53;1.90;;;;;;;20.70;54.45;99027.47;5090019;28;20050;-75
2022/07/09 08:56:10;;;;;;;2.30;1.40;;;;;;;20.63;54.34;99026.09;5090838;28;20035;-76
2022/07/09 08:58:37;;;;;;;2.75;1.50;;;;;;;20.60;53.98;99024.00;5091326;28;20484;-76
2022/07/09 09:01:05;;;;;;;1.33;1.10;;;;;;;20.59;53.43;99015.97;5090653;28;20074;-76
2022/07/09 09:03:31;;;;;;;5.22;1.15;;;;;;;20.55;53.91;99018.66;5090950;28;20476;-76
2022/07/09 09:06:08;;;;;;;3.17;1.00;;;;;;;20.72;53.72;99016.78;5072517;28;20027;-75
2022/07/09 09:08:44;;;;;;;1.60;0.93;;;;;;;20.92;51.04;99018.63;5090584;28;20145;-77
2022/07/09 09:11:22;;;;;;;3.15;1.40;;;;;;;20.95;52.63;99008.75;5089137;28;20028;-76
2022/07/09 09:13:48;;;;;;;3.47;1.10;;;;;;;21.06;52.46;99009.06;5091124;28;20039;-76
2022/07/09 09:16:16;;;;;;;3.63;1.10;;;;;;;21.04;52.76;99005.81;5090832;28;20124;-75
2022/07/09 09:18:49;;;;;;;3.75;1.15;;;;;;;20.99;52.33;99006.06;5090861;28;20129;-77
2022/07/09 09:21:18;;;;;;;1.67;1.00;;;;;;;20.98;52.26;99002.47;5090496;28;20092;-76
2022/07/09 09:23:49;;;;;;;2.95;1.50;;;;;;;21.02;51.62;99003.38;5090742;28;20085;-75
2022/07/09 09:26:16;;;;;;;2.33;1.20;;;;;;;21.02;50.51;99008.16;5089675;28;20115;-75
2022/07/09 09:29:09;;;;;;;3.22;1.30;;;;;;;20.95;51.28;99014.34;5090424;28;20023;-76
2022/07/09 09:31:36;;;;;;;2.05;0.88;;;;;;;20.88;50.56;99012.13;5085298;28;20115;-76
2022/07/09 09:34:15;;;;;;;2.70;1.50;;;;;;;20.79;50.79;99003.06;5090272;28;20536;-76
2022/07/09 09:36:44;;;;;;;5.25;0.98;;;;;;;20.80;51.50;98997.16;5090222;28;20024;-76
2022/07/09 09:39:26;;;;;;;2.30;1.10;;;;;;;20.99;51.51;98990.13;5089856;28;20032;-74
2022/07/09 09:41:53;;;;;;;4.90;1.40;;;;;;;21.32;51.12;98988.28;5084684;28;20173;-77
2022/07/09 09:44:20;;;;;;;3.45;1.10;;;;;;;21.58;49.05;98985.00;5088909;28;20384;-76
2022/07/09 09:46:47;;;;;;;2.13;1.00;;;;;;;21.80;48.88;98980.81;5088532;28;20020;-76
2022/07/09 09:49:15;;;;;;;1.95;0.90;;;;;;;21.86;47.92;98975.78;5070475;28;20102;-76
2022/07/09 09:52:00;;;;;;;2.58;1.10;;;;;;;21.84;48.18;98990.13;5088452;28;20032;-77
2022/07/09 09:54:25;;;;;;;1.65;0.85;;;;;;;21.70;45.79;98973.81;5086178;28;20047;-76
2022/07/09 09:56:51;;;;;;;1.80;1.00;;;;;;;21.41;47.01;98984.16;5088623;28;20032;-76
2022/07/09 09:59:17;;;;;;;2.70;1.00;;;;;;;21.24;47.70;98982.47;5091527;28;20478;-76
2022/07/09 10:01:45;;;;;;;3.92;1.40;;;;;;;21.05;47.76;98988.72;5092738;28;20116;-76
2022/07/09 10:04:12;;;;;;;3.40;1.40;;;;;;;20.91;47.97;98991.91;5092449;28;20176;-76
2022/07/09 10:06:39;;;;;;;2.45;1.42;;;;;;;20.76;48.51;98992.63;5092076;28;20059;-75
2022/07/09 10:09:07;;;;;;;2.58;0.95;;;;;;;20.59;48.46;98988.09;5092694;28;20024;-75
2022/07/09 10:11:42;;;;;;;2.88;1.38;;;;;;;20.43;48.99;98986.06;5074058;28;20066;-74
2022/07/09 10:14:23;;;;;;;1.85;1.25;;;;;;;20.51;49.54;98982.34;5092709;28;20020;-76
2022/07/09 10:16:48;;;;;;;3.35;1.20;;;;;;;20.67;49.35;98965.69;5092327;28;20028;-74
2022/07/09 10:19:33;;;;;;;3.10;1.30;;;;;;;20.81;49.39;98967.31;5092506;28;20407;-75
2022/07/09 10:21:59;;;;;;;3.85;1.20;;;;;;;20.87;48.90;98954.75;5090491;28;20024;-76
2022/07/09 10:24:29;;;;;;;1.63;1.15;;;;;;;20.87;48.58;98965.09;5092613;28;20024;-76
2022/07/09 10:27:09;;;;;;;1.88;1.08;;;;;;;20.85;47.61;98956.28;5092186;28;20027;-77
2022/07/09 10:29:36;;;;;;;;;;;;;;;20.96;47.63;98947.06;5090390;28;20020;-74
2022/07/09 10:32:03;;;;;;;2.80;0.90;;;;;;;21.21;45.41;98946.94;5088982;28;20412;-72
2022/07/09 10:34:37;;;;;;;1.55;0.80;;;;;;;21.44;46.31;98935.22;5092598;28;20079;-78
2022/07/09 10:37:04;;;;;;;1.27;0.85;;;;;;;21.60;45.29;98935.22;5092630;28;20024;-79
2022/07/09 10:39:31;;;;;;;3.03;1.13;;;;;;;21.59;43.72;98941.19;5092496;28;20012;-78
2022/07/09 10:42:19;;;;;;;3.13;1.00;;;;;;;21.44;44.70;98940.78;5092996;28;20118;-78
2022/07/09 10:44:45;;;;;;;2.38;1.00;;;;;;;21.38;44.40;98936.63;5092068;28;20032;-77
2022/07/09 10:47:11;;;;;;;2.22;1.10;;;;;;;21.42;44.72;98934.75;5093806;28;20020;-80
2022/07/09 10:49:37;;;;;;;1.35;0.90;;;;;;;21.48;42.26;98927.75;5093427;28;20032;-80
2022/07/09 10:52:05;;;;;;;1.73;1.00;;;;;;;21.52;41.01;98922.25;5091698;28;20035;-79
2022/07/09 10:54:30;;;;;;;1.00;0.90;;;;;;;21.61;40.75;98919.28;5088386;28;20028;-78
2022/07/09 10:56:57;;;;;;;3.33;1.10;;;;;;;21.72;41.56;98909.22;5093283;28;20606;-78
2022/07/09 10:59:23;;;;;;;2.10;1.20;;;;;;;21.92;41.25;98912.13;5093021;28;20036;-80
2022/07/09 11:01:50;;;;;;;1.58;1.20;;;;;;;22.13;41.58;98909.03;5092560;28;20020;-78
2022/07/09 11:04:25;;;;;;;4.60;1.73;;;;;;;22.37;42.14;98912.75;5093099;28;20069;-78
2022/07/09 11:06:50;;;;;;;3.72;1.40;;;;;;;22.54;40.98;98915.16;5092811;28;20034;-77
2022/07/09 11:09:16;;;;;;;2.05;1.33;;;;;;;22.61;40.73;98920.09;5092090;28;20028;-78
2022/07/09 11:11:43;;;;;;;3.00;1.42;;;;;;;22.65;38.54;98911.78;5090186;28;20024;-78
2022/07/09 11:14:11;;;;;;;1.92;1.50;;;;;;;22.62;39.92;98898.56;5091330;28;20480;-77
2022/07/09 11:16:37;;;;;;;3.05;1.60;;;;;;;22.69;40.17;98896.72;5088394;28;20129;-78
2022/07/09 11:19:13;;;;;;;2.50;1.63;;;;;;;22.82;39.74;98891.78;5091407;28;20048;-77
2022/07/09 11:21:39;;;;;;;2.03;1.60;;;;;;;22.97;39.49;98900.47;5086797;28;20034;-74
2022/07/09 11:24:15;;;;;;;3.15;1.75;;;;;;;23.12;39.56;98898.75;5091409;28;20024;-76
2022/07/09 11:26:41;;;;;;;3.67;1.75;;;;;;;23.19;37.62;98899.69;5088374;28;20063;-77
2022/07/09 11:29:08;;;;;;;3.50;1.80;;;;;;;23.19;38.32;98891.28;5091243;28;20028;-78
2022/07/09 11:31:35;;;;;;;3.22;1.70;;;;;;;23.40;38.00;98889.28;5091920;28;20048;-77